Tiempo atmosférico en la estación meteorológica de Teruel, Teruel (900 m.)



Fecha
DESCASC
Temp. máxima en grados centígrados (hora)
DESCASC
Temp. mínima en grados centígrados (hora)
DESCASC
Temp. media en grados centígrados
DESCASC
Racha de viento máxima en m/sg (hora)
DESCASC
Velocidad máxima media en intervalos de 10 minutos(hora)
DESCASC
Precipitaciones diarias en mm
DESCASC
Precipitaciones de 00:00 a 06:00 en mm
DESCASC
Precipitaciones de 06:00 a 12:00 en mm
DESCASC
Precipitaciones de 12:00 a 18:00 en mm
DESCASC
Precipitaciones de 18:00 a 24:00 en mm
DESCASC
18-08-2019 36.7 (16:00) 15.5 (08:00) 26.1 11.67 (14:20) 5.83 (14:30) 0 0 0 0 0
17-08-2019 37.7 (16:20) 15.5 (07:10) 26.6 10 (16:00) 4.44 (17:40) 0 0 0 0 0
16-08-2019 34.6 (15:30) 14.6 (07:40) 24.6 8.89 (17:30) 3.33 (17:30) 0 0 0 0 0
15-08-2019 34.3 (16:40) 13.2 (00:00) 23.7 8.33 (19:50) 3.33 (19:30) 0 0 0 0 0
14-08-2019 31.9 (18:30) 14.3 (00:00) 23.1 5.83 (14:50) 2.78 (14:20) 0 0 0 0 0
13-08-2019 27.1 (18:50) 13.4 (00:00) 20.3 7.5 (14:20) 4.17 (13:50) 2.4 0 0 2.4 0
12-08-2019 28 (17:30) 13.6 (00:00) 20.8 8.89 (20:10) 3.89 (19:50) 0 0 0 0 0
11-08-2019 32.6 (15:00) 17.9 (00:00) 25.2 11.94 (16:20) 5 (16:30) 0 0 0 0 0
10-08-2019 35.4 (16:30) 16.1 (00:00) 25.8 11.11 (19:20) 5.28 (15:00) 0 0 0 0 0
09-08-2019 36.5 (17:00) 14.5 (00:00) 25.5 8.89 (19:30) 4.72 (18:20) 0 0 0 0 0
08-08-2019 36.2 (17:30) 14.8 (00:00) 25.5 13.89 (17:10) 5.56 (17:10) 0 0 0 0 0
07-08-2019 32.8 (15:30) 15.4 (00:00) 24.1 7.22 (21:20) 3.89 (21:20) 0 0 0 0 0
06-08-2019 37.4 (16:00) 16.7 (00:00) 27.1 10.56 (18:50) 5.56 (19:10) 0 0 0 0 0
05-08-2019 36.9 (18:00) 15.9 (00:00) 26.4 10 (17:00) 5 (16:20) 0 0 0 0 0
04-08-2019 36.6 (15:40) 16.2 (00:00) 26.4 9.72 (14:30) 4.72 (15:00) 0 0 0 0 0
03-08-2019 36.2 (15:50) 14.1 (00:00) 25.2 9.72 (16:00) 5 (14:30) 0 0 0 0 0
02-08-2019 35.6 (16:40) 15 (00:00) 25.3 9.17 (20:10) 3.61 (17:20) 0 0 0 0 0
01-08-2019 35.5 (17:00) 15.2 (00:00) 25.3 10.28 (16:20) 5 (15:50) 0 0 0 0 0
31-07-2019 29.8 (15:30) 13.2 (00:00) 21.5 10.28 (13:50) 3.61 (13:30) 0 0 0 0 0
30-07-2019 32.7 (17:10) 13.7 (00:00) 23.2 8.89 (20:00) 4.17 (10:20) 0 0 0 0 0
29-07-2019 34.5 (16:50) 11.2 (00:00) 22.8 10.56 (13:20) 4.72 (15:10) 0 0 0 0 0
28-07-2019 29.6 (18:00) 11.4 (00:00) 20.5 7.22 (12:00) 3.61 (11:40) 0 0 0 0 0
27-07-2019 28.3 (17:30) 15.8 (00:00) 22 10.83 (19:10) 5.56 (17:10) 0 0 0 0 0
26-07-2019 31.4 (14:00) 16.6 (00:00) 24 8.89 (19:20) 3.33 (15:20) 1.8 0 0 1.8 0
25-07-2019 37 (16:20) 14.4 (00:00) 25.7 10 (20:20) 4.72 (17:40) 0 0 0 0 0
24-07-2019 37.2 (16:30) 17.9 (00:00) 27.6 9.72 (15:20) 4.44 (18:20) 0 0 0 0 0
23-07-2019 36.7 (15:20) 13.1 (00:00) 24.9 11.94 (17:50) 5 (18:50) 0 0 0 0 0
22-07-2019 35.5 (15:30) 14.6 (00:00) 25.1 10.56 (17:10) 3.89 (17:10) 0 0 0 0 0
21-07-2019 34.6 (15:50) 16.2 (00:00) 25.4 9.44 (16:40) 3.33 (14:00) 0 0 0 0 0

Gráficas

Temp. máximas Temp. mínimas Temp. medias Precipitaciones Rachas de viento máximas Velocidades máximas media en intervalos de 10 minutos

Datos horarios

Fecha y hora oficial Temperatura (ºC) Velocidad del viento (km/h) Dirección del viento Racha (km/h) Dirección de racha Precipitación (mm) Presión (hPa) Tendencia (hPa) Humedad (%)
2019-08-19 23:00:00 22.7 7 Este 26 Sur 0 915.3 2.5 72
2019-08-19 22:00:00 23.1 8 Sudeste 26 Sudeste 0 914.9 2.5 72
2019-08-19 21:00:00 24.3 8 Este 30 Este 0 913.9 1.4 68
2019-08-19 20:00:00 26.1 9 Este 37 Sudeste 0 912.8 0.1 62
2019-08-19 19:00:00 28.5 11 Sudeste 31 Sur 0 912.4 -0.7 52
2019-08-19 18:00:00 33.2 12 Sur 33 Sur 0 912.5 -1 26
2019-08-19 17:00:00 34.9 17 Sur 35 Sur 0 912.7 -1.2 25
2019-08-19 16:00:00 34.4 9 Sur 40 Sudeste 0 913.1 -1.1 25
2019-08-19 15:00:00 33.2 13 Sur 31 Sur 0 913.5 -1.3 26
2019-08-19 14:00:00 30.9 9 Sur 24 Sur 0 913.9 -1.3 34
2019-08-19 13:00:00 30.8 14 Sur 26 Sur 0 914.2 -1 30
2019-08-19 12:00:00 26.2 5 Sur 12 Sudoeste 0 914.8 -0.3 46
2019-08-19 11:00:00 22.5 8 Sudoeste 15 Oeste 0 915.2 0.4 56
2019-08-19 10:00:00 19.7 3 Oeste 13 Oeste 0 915.2 0.9 64
2019-08-19 09:00:00 17.7 3 Norte 13 Oeste 0 915.1 1.3 71
2019-08-19 08:00:00 15 5 Oeste 7 Oeste 0 914.8 0.9 83
2019-08-19 07:00:00 15.5 5 Oeste 9 Sudoeste 0 914.3 0.4 80
2019-08-19 06:00:00 16.2 4 Oeste 11 Oeste 0 913.8 -0.1 76
2019-08-19 05:00:00 16.8 3 Oeste 8 Noroeste 0 913.9 -0.1 63
2019-08-19 04:00:00 17.4 3 Noroeste 9 Oeste 0 913.9 0.1 61
2019-08-19 03:00:00 18.4 4 Norte 8 Oeste 0 913.9 0.7 58
2019-08-19 02:00:00 19.9 4 Noroeste 9 Oeste 0 914 1 54
2019-08-19 01:00:00 20.8 4 Oeste 11 Oeste 0 913.8 1.7 50
2019-08-19 00:00:00 24.3 3 Sudoeste 9 Sur 0 913.2 2 48
2019-08-18 23:00:00 25.8 3 Sudeste 18 Sudeste 0 913 2.1 45
2019-08-18 22:00:00 27.5 4 Sur 13 Sudoeste 0 912.1 1.3 34
2019-08-18 21:00:00 30.8 6 Sudoeste 26 Sudoeste 0 911.2 0.4 19
2019-08-18 20:00:00 33.7 10 Sudoeste 28 Sudoeste 0 910.9 0 15
2019-08-18 19:00:00 34 15 Sudoeste 28 Sudoeste 0 910.8 -0.5 15
2019-08-18 18:00:00 35.5 17 Sudoeste 37 Sur 0 910.8 -0.9 13
2019-08-18 17:00:00 36.4 16 Sudoeste 35 Sudoeste 0 910.9 -1.2 13
2019-08-18 16:00:00 36.7 13 Sur 33 Sudoeste 0 911.3 -1 14
2019-08-18 15:00:00 36.1 14 Sudoeste 42 Sudoeste 0 911.7 -1.3 15
2019-08-18 14:00:00 35.8 17 Sudoeste 37 Sudoeste 0 912.1 -1.2 15
2019-08-18 13:00:00 34.9 13 Sudoeste 28 Sur 0 912.3 -1.2 20
2019-08-18 12:00:00 32 10 Sur 25 Sur 0 913 -0.4 30
2019-08-18 11:00:00 28.2 5 Sudeste 17 Sur 0 913.3 0.4 41
2019-08-18 10:00:00 24.1 4 Sudeste 7 Sur 0 913.5 0.9 56
2019-08-18 09:00:00 18.5 0 Calma 5 Oeste 0 913.4 0.7 76
2019-08-18 08:00:00 15.5 0 Calma 4 Noroeste 0 912.9 -0.1 86
2019-08-18 07:00:00 15.9 3 Oeste 4 Sudoeste 0 912.6 -0.8 87
2019-08-18 06:00:00 17.1 2 Noroeste 5 Norte 0 912.7 -1 82
2019-08-18 05:00:00 18 0 Calma 4 Nordeste 0 913 -1.1 78
2019-08-18 04:00:00 19 0 Calma 6 Norte 0 913.4 -0.6 79
2019-08-18 03:00:00 20 3 Norte 8 Norte 0 913.7 -0.2 76
2019-08-18 02:00:00 20.8 4 Nordeste 6 Sudoeste 0 914.1 0.4 76
2019-08-18 01:00:00 22.7 2 Sudeste 8 Este 0 914 0.8 71
2019-08-18 00:00:00 23.3 3 Sudeste 15 Este 0 913.9 1.5 71
2019-08-17 23:00:00 24.4 3 Este 17 Sudeste 0 913.7 1.6 66
2019-08-17 22:00:00 26.1 8 Sudeste 21 Sur 0 913.2 1 59
2019-08-17 21:00:00 29 5 Sudeste 17 Sudeste 0 912.4 -0.1 47
2019-08-17 20:00:00 35 5 Oeste 28 Sudoeste 0 912.1 -0.6 18
2019-08-17 19:00:00 35.3 10 Oeste 24 Oeste 0 912.2 -1 17
2019-08-17 18:00:00 36 10 Sudoeste 32 Sur 0 912.5 -1.2 16
2019-08-17 17:00:00 36.6 8 Sudoeste 23 Oeste 0 912.7 -1.6 15
2019-08-17 16:00:00 37.1 14 Sudoeste 36 Sur 0 913.2 -1.7 15
2019-08-17 15:00:00 35.8 10 Oeste 21 Oeste 0 913.7 -1.9 16
2019-08-17 14:00:00 34.5 6 Sur 19 Sudoeste 0 914.3 -1.8 23
2019-08-17 13:00:00 33.8 5 Este 16 Noroeste 0 914.9 -1.4 25
2019-08-17 12:00:00 30.7 4 Este 10 Este 0 915.6 -0.6 39
2019-08-17 11:00:00 26.8 4 Sudeste 10 Sudeste 0 916.1 0.1 54
2019-08-17 10:00:00 23.3 4 Este 7 Nordeste 0 916.3 0.5 66
2019-08-17 09:00:00 18.9 0 Calma 5 Este 0 916.2 0.7 82
2019-08-17 08:00:00 15.7 0 Calma 8 Oeste 0 916 0.4 90
2019-08-17 07:00:00 15.6 6 Oeste 11 Oeste 0 915.8 0.1 91
2019-08-17 06:00:00 16.9 2 Oeste 5 Norte 0 915.5 -0.6 88
2019-08-17 05:00:00 17.6 2 Noroeste 7 Norte 0 915.6 -0.6 87
2019-08-17 04:00:00 18.6 0 Calma 5 Sudeste 0 915.7 -0.8 88
2019-08-17 03:00:00 19.2 3 Nordeste 5 Nordeste 0 916.1 -0.5 87
2019-08-17 02:00:00 20.4 2 Norte 6 Sudeste 0 916.2 -0.1 82
2019-08-17 01:00:00 21.5 3 Sudeste 10 Sur 0 916.5 0.8 78
2019-08-17 00:00:00 22.2 5 Sur 16 Sudeste 0 916.6 2.1 75
2019-08-16 23:00:00 22.7 5 Sudeste 13 Este 0 916.3 2.4 75
2019-08-16 22:00:00 23.7 7 Sudeste 19 Sudeste 0 915.7 2.1 72
2019-08-16 21:00:00 25.6 6 Sudeste 22 Este 0 914.5 0.6 64
2019-08-16 20:00:00 28.1 8 Sudeste 30 Sudeste 0 913.9 -0.5 54
2019-08-16 19:00:00 29.6 8 Este 28 Este 0 913.6 -1.1 48
2019-08-16 18:00:00 30.6 9 Este 32 Este 0 913.9 -1.3 44
2019-08-16 17:00:00 30.4 9 Este 26 Este 0 914.4 -1.7 42
2019-08-16 16:00:00 32.6 8 Sudeste 27 Sur 0 914.7 -2.3 29
2019-08-16 15:00:00 33.4 8 Sudeste 21 Sur 0 915.2 -2.4 30
2019-08-16 14:00:00 31.3 5 Sur 22 Sur 0 916.1 -1.8 35
2019-08-16 13:00:00 29.7 9 Sur 17 Sur 0 917 -1.1 41
2019-08-16 12:00:00 26.8 6 Sur 16 Sur 0 917.6 -0.6 49
2019-08-16 11:00:00 24.6 6 Sudeste 12 Sudeste 0 917.9 0 52
2019-08-16 10:00:00 21.6 3 Sudeste 6 Sudeste 0 918.1 0.4 56
2019-08-16 09:00:00 17.8 2 Sur 5 Oeste 0 918.2 0.5 66
2019-08-16 08:00:00 14.8 0 Calma 3 Sudoeste 0 917.9 0.2 77
2019-08-16 07:00:00 15 0 Calma 6 Noroeste 0 917.7 -0.3 77
2019-08-16 06:00:00 15.7 3 Norte 5 Noroeste 0 917.7 -0.8 69
2019-08-16 05:00:00 16.9 2 Noroeste 6 Oeste 0 917.7 -1 65
2019-08-16 04:00:00 17.5 0 Calma 5 Oeste 0 918 -0.6 63
2019-08-16 03:00:00 18.7 0 Calma 12 Noroeste 0 918.5 0 59
2019-08-16 02:00:00 19.8 7 Noroeste 14 Noroeste 0 918.7 0.4 55
2019-08-16 01:00:00 21.3 4 Norte 8 Nordeste 0 918.6 0.7 69
2019-08-16 00:00:00 21.9 2 Sur 8 Este 0 918.5 1.7 79
2019-08-15 23:00:00 21.9 3 Nordeste 18 Este 0 918.3 2 78
2019-08-15 22:00:00 22.5 6 Este 19 Sur 0 917.9 2.6 74
2019-08-15 21:00:00 24.8 7 Sudeste 26 Sudeste 0 916.8 1.8 67
2019-08-15 20:00:00 27.5 10 Este 30 Este 0 916.3 1 59
2019-08-15 19:00:00 31.3 5 Este 27 Sudeste 0 915.3 -0.5 41
2019-08-15 18:00:00 33.9 9 Nordeste 19 Este 0 915 -1.4 21
2019-08-15 17:00:00 34.2 6 Norte 18 Oeste 0 915.3 -1.7 20
2019-08-15 16:00:00 33.5 8 Oeste 18 Oeste 0 915.8 -1.9 20
2019-08-15 15:00:00 32.7 4 Norte 12 Este 0 916.4 -2 21
2019-08-15 14:00:00 31.6 3 Sudeste 14 Oeste 0 917 -1.9 18
2019-08-15 13:00:00 28.6 3 Nordeste 8 Nordeste 0 917.7 -1.4 36
2019-08-15 12:00:00 26.4 5 Sur 8 Sur 0 918.4 -0.6 42
2019-08-15 11:00:00 23.7 4 Sur 12 Nordeste 0 918.9 0.1 48
2019-08-15 10:00:00 20.9 3 Nordeste 8 Nordeste 0 919.1 0.8 52
2019-08-15 09:00:00 17.4 0 Calma 4 Nordeste 0 919 0.9 55
2019-08-15 08:00:00 13.4 0 Calma 9 Norte 0 918.8 0.7 74
2019-08-15 07:00:00 13.7 3 Norte 7 Noroeste 0 918.3 0.1 72
2019-08-15 06:00:00 14.3 2 Sudoeste 6 Nordeste 0 918.1 -0.1 72
2019-08-15 05:00:00 15.3 0 Calma 9 Nordeste 0 918.1 -0.4 68
2019-08-15 04:00:00 16.5 0 Calma 5 Noroeste 0 918.2 -0.3 62
2019-08-15 03:00:00 17.8 5 Oeste 10 Oeste 0 918.2 0 67
2019-08-15 02:00:00 18.2 3 Noroeste 9 Noroeste 0 918.5 0.7 72
2019-08-15 01:00:00 19.3 5 Oeste 8 Oeste 0 918.5 1.4 73
2019-08-15 00:00:00 21.6 2 Sur 9 Sudeste 0 918.2 1.8 71
2019-08-14 23:00:00 22.9 3 Sur 15 Sur 0 917.8 1.9 68
2019-08-14 22:00:00 24.4 5 Sudeste 16 Este 0 917.1 1.2 62
2019-08-14 21:00:00 27.2 2 Nordeste 19 Nordeste 0 916.4 0.4 26
2019-08-14 20:00:00 30.5 6 Nordeste 17 Nordeste 0 915.9 -0.4 19
2019-08-14 19:00:00 31.4 7 Norte 15 Noroeste 0 915.9 -0.7 19
2019-08-14 18:00:00 31.7 6 Norte 19 Norte 0 916 -1.2 18
2019-08-14 17:00:00 31.3 8 Norte 19 Nordeste 0 916.3 -1.3 18
2019-08-14 16:00:00 30.6 7 Oeste 20 Norte 0 916.6 -1.4 18
2019-08-14 15:00:00 30.1 7 Norte 21 Norte 0 917.2 -1.3 21
2019-08-14 14:00:00 29.2 7 Noroeste 17 Oeste 0 917.6 -1.2 25
2019-08-14 13:00:00 27.6 6 Norte 17 Norte 0 918 -1 29
2019-08-14 12:00:00 24.7 4 Este 8 Noroeste 0 918.5 -0.9 39
2019-08-14 11:00:00 21.6 3 Nordeste 10 Sur 0 918.8 -0.1 59
2019-08-14 10:00:00 18.4 3 Este 6 Sur 0 919 0.4 62
2019-08-14 09:00:00 16.1 0 Calma 8 Oeste 0 919.4 0.8 69
2019-08-14 08:00:00 15 4 Oeste 7 Sudoeste 0 918.9 0.3 70
2019-08-14 07:00:00 15.2 2 Nordeste 8 Oeste 0 918.6 -0.4 67
2019-08-14 06:00:00 15.1 3 Oeste 7 Noroeste 0 918.6 -0.6 67
2019-08-14 05:00:00 14.6 4 Oeste 7 Oeste 0 918.6 -0.4 69
2019-08-14 04:00:00 14.7 2 Norte 10 Oeste 0 919 0.2 71
2019-08-14 03:00:00 15 4 Oeste 8 Oeste 0 919.2 0.4 68
2019-08-14 02:00:00 15.5 3 Oeste 7 Oeste 0 919 0.7 89
2019-08-14 01:00:00 16.5 4 Oeste 6 Oeste 0 918.8 1.2 87
2019-08-14 00:00:00 17.6 2 Sudoeste 10 Este 0 918.8 2.1 84
2019-08-13 23:00:00 18.5 4 Este 13 Sudeste 0 918.3 2.5 81
2019-08-13 22:00:00 19.4 5 Sudeste 22 Sudeste 0 917.6 1.7 77
2019-08-13 21:00:00 21.9 6 Este 24 Noroeste 0 916.7 0.8 64
2019-08-13 20:00:00 26.4 4 Noroeste 11 Norte 0 915.8 -0.4 42
2019-08-13 19:00:00 26.9 3 Sudoeste 14 Sur 0 915.9 -0.7 39
2019-08-13 18:00:00 26.5 8 Sur 20 Sur 0 915.9 -0.9 46
2019-08-13 17:00:00 25.9 7 Sur 19 Sudeste 0 916.2 -0.9 52
2019-08-13 16:00:00 23.3 5 Nordeste 15 Norte 1.6 916.6 -1.3 54
2019-08-13 15:00:00 21.6 7 Nordeste 27 Sur 0.8 916.8 -1.8 68
2019-08-13 14:00:00 25.1 15 Sur 27 Sur 0 917.1 -1.9 44
2019-08-13 13:00:00 22.4 5 Sur 14 Sur 0 917.9 -1.2 44
2019-08-13 12:00:00 20.7 4 Sudoeste 12 Sur 0 918.6 -0.5 42
2019-08-13 11:00:00 18.2 4 Nordeste 14 Oeste 0 919 0.1 45
2019-08-13 10:00:00 17 7 Oeste 15 Oeste 0 919.1 0.4 48
2019-08-13 09:00:00 14.2 8 Noroeste 17 Norte 0 919.1 0.7 58
2019-08-13 08:00:00 13.7 8 Noroeste 16 Noroeste 0 918.9 0.3 59
2019-08-13 07:00:00 13.5 9 Noroeste 20 Noroeste 0 918.7 -0.3 59
2019-08-13 06:00:00 14.3 9 Noroeste 18 Noroeste 0 918.4 -0.9 58
2019-08-13 05:00:00 14.5 5 Noroeste 16 Noroeste 0 918.6 -0.9 57
2019-08-13 04:00:00 14.6 7 Noroeste 16 Noroeste 0 919 -0.4 57
2019-08-13 03:00:00 14.9 9 Noroeste 18 Noroeste 0 919.3 0.1 56
2019-08-13 02:00:00 14.9 8 Noroeste 14 Noroeste 0 919.5 0.9 55
2019-08-13 01:00:00 15.6 4 Noroeste 17 Norte 0 919.4 2 52
2019-08-13 00:00:00 16.7 8 Norte 24 Nordeste 0 919.2 2.8 50
2019-08-12 23:00:00 18.2 7 Nordeste 27 Nordeste 0 918.6 3.3 45
2019-08-12 22:00:00 19.7 12 Nordeste 32 Nordeste 0 917.4 3.1 38
2019-08-12 21:00:00 21.6 13 Nordeste 32 Norte 0 916.4 1.9 35
2019-08-12 20:00:00 24.9 12 Nordeste 31 Norte 0 915.3 0.4 29
2019-08-12 19:00:00 27.4 10 Noroeste 23 Noroeste 0 914.3 -1.1 21
2019-08-12 18:00:00 27.7 11 Noroeste 22 Noroeste 0 914.5 -1.4 20
2019-08-12 17:00:00 27.6 7 Noroeste 18 Oeste 0 914.9 -1.3 21
2019-08-12 16:00:00 26.6 7 Noroeste 22 Norte 0 915.4 -1.2 24
2019-08-12 15:00:00 25.9 8 Norte 25 Noroeste 0 915.9 -1 28
2019-08-12 14:00:00 25.1 7 Nordeste 21 Noroeste 0 916.2 -0.8 32
2019-08-12 13:00:00 23.6 8 Nordeste 24 Este 0 916.6 -0.2 37
2019-08-12 12:00:00 21.8 10 Noroeste 23 Norte 0 916.9 0.5 41
2019-08-12 11:00:00 20.3 5 Norte 18 Nordeste 0 917 1.1 48
2019-08-12 10:00:00 17.7 10 Noroeste 23 Noroeste 0 916.8 1.6 60
2019-08-12 09:00:00 17 10 Noroeste 20 Noroeste 0 916.4 1.7 62
2019-08-12 08:00:00 13.9 3 Norte 11 Oeste 0 915.9 1.4 74
2019-08-12 07:00:00 14 5 Noroeste 18 Oeste 0 915.2 0.1 73
2019-08-12 06:00:00 14.7 8 Noroeste 15 Noroeste 0 914.7 -0.3 70
2019-08-12 05:00:00 15 5 Oeste 15 Noroeste 0 914.5 -0.7 69
2019-08-12 04:00:00 15.7 7 Noroeste 15 Oeste 0 915.1 0.2 66
2019-08-12 03:00:00 16.4 6 Oeste 17 Noroeste 0 915 0.4 65
2019-08-12 02:00:00 17.9 6 Noroeste 21 Noroeste 0 915.2 1.2 60
2019-08-12 01:00:00 19 9 Oeste 19 Noroeste 0 914.9 1.5 56
2019-08-12 00:00:00 21.6 6 Noroeste 18 Noroeste 0 914.6 1.9 44
2019-08-11 23:00:00 23.9 3 Norte 9 Nordeste 0 914 1.7 23
2019-08-11 22:00:00 25.6 5 Norte 17 Sur 0 913.4 1.2 23
2019-08-11 21:00:00 27.5 9 Sudoeste 18 Sudoeste 0 912.7 0.7 19
2019-08-11 20:00:00 28.6 10 Sudoeste 22 Sudoeste 0 912.3 0.1 17
2019-08-11 19:00:00 30.1 12 Sudoeste 28 Sur 0 912.2 0.1 15
2019-08-11 18:00:00 31 10 Sudoeste 29 Sudoeste 0 912 -0.5 16
2019-08-11 17:00:00 31.1 14 Sudoeste 43 Sur 0 912.2 -0.9 15
2019-08-11 16:00:00 31.8 15 Sur 30 Sur 0 912.1 -1.4 19
2019-08-11 15:00:00 32.6 9 Sudoeste 25 Oeste 0 912.5 -1.5 20
2019-08-11 14:00:00 31.8 10 Sudoeste 29 Oeste 0 913.1 -1 22
2019-08-11 13:00:00 30.2 16 Sur 33 Sudoeste 0 913.5 -1.1 25
2019-08-11 12:00:00 27.9 11 Sudoeste 26 Sur 0 914 -1 42
2019-08-11 11:00:00 26.5 9 Sur 28 Sur 0 914.1 -0.5 52
2019-08-11 10:00:00 24.5 9 Sur 23 Sur 0 914.6 0.6 63
2019-08-11 09:00:00 21.5 4 Sudeste 10 Sur 0 915 1.1 76
2019-08-11 08:00:00 18.6 2 Sur 6 Sur 0 914.6 0.6 81
2019-08-11 07:00:00 17.9 4 Este 5 Este 0 914 -0.3 81
2019-08-11 06:00:00 19 2 Nordeste 5 Este 0 913.9 -1 76
2019-08-11 05:00:00 19.6 3 Este 4 Este 0 914 -1.4 76
2019-08-11 04:00:00 20.6 3 Sur 13 Sur 0 914.3 -1.4 71
2019-08-11 03:00:00 21.2 3 Sur 13 Sur 0 914.9 -0.9 69
2019-08-11 02:00:00 22.1 5 Sudeste 16 Este 0 915.4 -0.4 67
2019-08-11 01:00:00 22.7 5 Sudeste 17 Sudeste 0 915.7 0.6 70
2019-08-11 00:00:00 23.3 5 Sudeste 18 Sudeste 0 915.8 1.4 72
2019-08-10 23:00:00 24.2 6 Sudeste 22 Sudeste 0 915.8 1.7 68
2019-08-10 22:00:00 26.1 8 Sudeste 24 Este 0 915.1 1 60
2019-08-10 21:00:00 30.1 8 Sudoeste 32 Sudoeste 0 914.4 0.2 27
2019-08-10 20:00:00 32.5 14 Sudoeste 40 Oeste 0 914.1 -0.3 24
2019-08-10 19:00:00 33.8 17 Sudoeste 35 Oeste 0 914.1 -0.8 22
2019-08-10 18:00:00 34.6 15 Sudoeste 36 Sudoeste 0 914.2 -1.3 21
2019-08-10 17:00:00 35.4 11 Sudoeste 34 Sur 0 914.4 -1.5 21
2019-08-10 16:00:00 34.9 14 Sur 39 Sur 0 914.9 -1.7 24
2019-08-10 15:00:00 34.1 19 Sur 39 Sur 0 915.5 -1.9 27
2019-08-10 14:00:00 33.9 13 Sur 29 Sur 0 915.9 -1.7 29
2019-08-10 13:00:00 30.9 5 Nordeste 14 Este 0 916.6 -1.4 37
2019-08-10 12:00:00 28.4 5 Este 13 Nordeste 0 917.4 -0.6 46
2019-08-10 11:00:00 25.5 4 Sur 9 Sudoeste 0 917.6 -0.1 51
2019-08-10 10:00:00 22.7 5 Sudoeste 9 Sudoeste 0 918 0.9 59
2019-08-10 09:00:00 20.2 2 Sudeste 5 Nordeste 0 918 1.6 68
2019-08-10 08:00:00 16.3 0 Calma 5 Norte 0 917.7 1.6 81
2019-08-10 07:00:00 16.7 4 Noroeste 6 Oeste 0 917.1 0.8 80
2019-08-10 06:00:00 16.9 3 Oeste 6 Oeste 0 916.4 0.1 79
2019-08-10 05:00:00 18 2 Oeste 4 Noroeste 0 916.1 -0.4 75
2019-08-10 04:00:00 19.2 0 Calma 10 Oeste 0 916.3 -0.2 72
2019-08-10 03:00:00 20 6 Oeste 11 Oeste 0 916.3 0.4 70
2019-08-10 02:00:00 21.1 6 Oeste 16 Oeste 0 916.5 1 66
2019-08-10 01:00:00 22.8 4 Sudoeste 22 Noroeste 0 916.5 1.7 60
2019-08-10 00:00:00 24 3 Oeste 8 Noroeste 0 915.9 2.1 46
2019-08-09 23:00:00 26.1 4 Oeste 7 Oeste 0 915.5 2.2 39
2019-08-09 22:00:00 28 4 Oeste 15 Oeste 0 914.8 1.9 35
2019-08-09 21:00:00 30.6 8 Sudoeste 20 Sur 0 913.8 1.1 31
2019-08-09 20:00:00 33.2 13 Sudoeste 32 Oeste 0 913.3 0.4 24
2019-08-09 19:00:00 34.8 13 Oeste 31 Oeste 0 912.9 -0.3 24
2019-08-09 18:00:00 35.8 13 Sudoeste 30 Oeste 0 912.7 -0.9 20
2019-08-09 17:00:00 36.5 12 Oeste 31 Sudoeste 0 912.9 -1.1 18
2019-08-09 16:00:00 36.2 12 Oeste 24 Noroeste 0 913.2 -1 18
2019-08-09 15:00:00 35.7 7 Sudoeste 26 Sudoeste 0 913.6 -0.9 20
2019-08-09 14:00:00 34.8 11 Oeste 28 Oeste 0 914 -0.6 19
2019-08-09 13:00:00 33.1 13 Oeste 21 Oeste 0 914.2 -0.5 21
2019-08-09 12:00:00 31.4 4 Nordeste 11 Sudeste 0 914.5 -0.3 29
2019-08-09 11:00:00 28.3 4 Sudeste 9 Este 0 914.6 0 36
2019-08-09 10:00:00 24.1 3 Este 5 Este 0 914.7 0.2 45
2019-08-09 09:00:00 19.2 0 Calma 4 Nordeste 0 914.8 0.7 63
2019-08-09 08:00:00 15.1 2 Noroeste 4 Nordeste 0 914.6 0.4 72
2019-08-09 07:00:00 14.8 4 Oeste 6 Oeste 0 914.5 0.2 73
2019-08-09 06:00:00 15.6 2 Noroeste 5 Oeste 0 914.1 -0.1 70
2019-08-09 05:00:00 16.7 0 Calma 3 Oeste 0 914.2 0.2 66
2019-08-09 04:00:00 17.8 2 Noroeste 5 Nordeste 0 914.3 0.6 61
2019-08-09 03:00:00 19 2 Noroeste 8 Norte 0 914.2 0.6 59
2019-08-09 02:00:00 20.2 2 Norte 3 Nordeste 0 914 0.6 55
2019-08-09 01:00:00 22 2 Nordeste 3 Este 0 913.7 0.7 47
2019-08-09 00:00:00 24.2 0 Calma 6 Norte 0 913.6 1.4 41
2019-08-08 23:00:00 26.7 2 Noroeste 13 Sudoeste 0 913.4 1.6 35
2019-08-08 22:00:00 28.7 8 Sudoeste 22 Sudoeste 0 913 1.3 31
2019-08-08 21:00:00 30.8 12 Sudoeste 27 Sudoeste 0 912.2 0.6 28
2019-08-08 20:00:00 33.4 15 Sudoeste 26 Sudoeste 0 911.8 0.3 24
2019-08-08 19:00:00 34.4 11 Sudoeste 31 Sudoeste 0 911.7 -0.2 23
2019-08-08 18:00:00 34.8 8 Sur 50 Sur 0 911.6 -0.8 23
2019-08-08 17:00:00 35.5 16 Sudoeste 35 Sur 0 911.5 -1.7 22
2019-08-08 16:00:00 33.7 9 Sur 26 Sudoeste 0 911.9 -2 24
2019-08-08 15:00:00 34.2 3 Este 16 Nordeste 0 912.4 -1.9 26
2019-08-08 14:00:00 32.8 6 Sudeste 14 Este 0 913.2 -1.3 25
2019-08-08 13:00:00 30.2 5 Sudeste 13 Sudeste 0 913.9 -0.8 33
2019-08-08 12:00:00 28.6 4 Este 10 Nordeste 0 914.3 -0.5 31
2019-08-08 11:00:00 26.3 4 Norte 9 Norte 0 914.5 0.2 37
2019-08-08 10:00:00 23.3 3 Este 6 Sudeste 0 914.7 0.5 46
2019-08-08 09:00:00 19.6 2 Sudeste 4 Sudeste 0 914.8 0.8 54
2019-08-08 08:00:00 15.3 0 Calma 7 Norte 0 914.3 0.4 67
2019-08-08 07:00:00 15.4 3 Norte 8 Nordeste 0 914.2 0.3 63
2019-08-08 06:00:00 15.9 3 Norte 9 Oeste 0 914 0.3 62
2019-08-08 05:00:00 16.4 4 Noroeste 9 Noroeste 0 913.9 0 62
2019-08-08 04:00:00 17.3 4 Noroeste 8 Norte 0 913.9 0 57
2019-08-08 03:00:00 19.3 3 Noroeste 5 Sur 0 913.7 0.1 50
2019-08-08 02:00:00 20.8 3 Oeste 6 Oeste 0 913.9 0.3 44
2019-08-08 01:00:00 23.4 4 Oeste 6 Oeste 0 913.9 1.1 36
2019-08-08 00:00:00 24.9 3 Oeste 10 Sudoeste 0 913.6 1.5 33
2019-08-07 23:00:00 26 5 Oeste 17 Oeste 0 913.6 2.1 30
2019-08-07 22:00:00 27 8 Oeste 26 Oeste 0 912.8 1.2 27
2019-08-07 21:00:00 27.9 12 Sudoeste 22 Sudoeste 0 912.1 0.2 23
2019-08-07 20:00:00 28.5 6 Oeste 18 Oeste 0 911.5 -0.2 29
2019-08-07 19:00:00 30.1 6 Noroeste 24 Noroeste 0 911.6 -0.5 23
2019-08-07 18:00:00 30.9 7 Oeste 20 Noroeste 0 911.9 -0.6 21
2019-08-07 17:00:00 31.9 5 Oeste 11 Oeste 0 911.7 -0.9 21
2019-08-07 16:00:00 32.7 5 Sudoeste 10 Sudoeste 0 912.1 -0.6 17
2019-08-07 15:00:00 31.5 5 Sur 10 Sudoeste 0 912.5 -0.1 18
2019-08-07 14:00:00 30 5 Sudoeste 12 Oeste 0 912.6 0.3 22
2019-08-07 13:00:00 29.8 10 Oeste 20 Oeste 0 912.7 0.5 22
2019-08-07 12:00:00 29.2 7 Sudoeste 17 Sudoeste 0 912.6 1 26
2019-08-07 11:00:00 27.4 3 Sudeste 8 Sur 0 912.3 1.2 35
2019-08-07 10:00:00 22.6 3 Sudeste 5 Sur 0 912.2 1.1 47
2019-08-07 09:00:00 18.3 2 Oeste 6 Oeste 0 911.6 0.8 59
2019-08-07 08:00:00 15.9 4 Oeste 6 Oeste 0 911.1 0.3 64
2019-08-07 07:00:00 15.8 3 Norte 6 Nordeste 0 911.1 0.1 64
2019-08-07 06:00:00 16.2 2 Oeste 6 Norte 0 910.8 -0.3 58
2019-08-07 05:00:00 15.9 0 Calma 8 Oeste 0 910.8 -0.5 55
2019-08-07 04:00:00 15.6 5 Oeste 8 Oeste 0 911 -0.4 48
2019-08-07 03:00:00 17 2 Noroeste 3 Norte 0 911.1 -0.3 45
2019-08-07 02:00:00 18.1 3 Noroeste 8 Norte 0 911.3 -0.1 40
2019-08-07 01:00:00 19.7 2 Norte 4 Norte 0 911.4 0.7 26
2019-08-07 00:00:00 21.9 0 Calma 8 Este 0 911.4 0.9 19
2019-08-06 23:00:00 24.6 3 Sudeste 16 Sur 0 911.4 1.5 18
2019-08-06 22:00:00 28 7 Sur 25 Sudoeste 0 910.7 0.8 13
2019-08-06 21:00:00 31.2 12 Sudoeste 26 Sudoeste 0 910.5 0.4 10
2019-08-06 20:00:00 33.4 15 Sudoeste 38 Sudoeste 0 909.9 -0.5 10
2019-08-06 19:00:00 35.4 19 Sudoeste 38 Sur 0 909.9 -1 8
2019-08-06 18:00:00 36.8 13 Sur 34 Sur 0 910.1 -1.3 10
2019-08-06 17:00:00 36.2 14 Sudoeste 32 Oeste 0 910.4 -1.5 11
2019-08-06 16:00:00 37.3 12 Sur 35 Sur 0 910.9 -1.7 12
2019-08-06 15:00:00 36.8 14 Sudoeste 29 Sudoeste 0 911.4 -1.7 12
2019-08-06 14:00:00 35.2 6 Este 20 Sur 0 911.9 -1.5 17
2019-08-06 13:00:00 34.1 6 Sudeste 14 Sudeste 0 912.6 -0.8 21
2019-08-06 12:00:00 32 4 Sudeste 9 Sur 0 913.1 -0.4 25
2019-08-06 11:00:00 28.5 4 Este 7 Este 0 913.4 0.2 47
2019-08-06 10:00:00 24.5 3 Sur 5 Sudoeste 0 913.4 0.2 63
2019-08-06 09:00:00 20.1 0 Calma 5 Sudoeste 0 913.5 0.3 77
2019-08-06 08:00:00 16.8 2 Oeste 5 Sudoeste 0 913.2 -0.3 87
2019-08-06 07:00:00 17.2 3 Norte 5 Norte 0 913.2 -0.3 86
2019-08-06 06:00:00 18 0 Calma 5 Norte 0 913.2 -0.5 85
2019-08-06 05:00:00 18.6 3 Norte 5 Norte 0 913.5 -0.3 82
2019-08-06 04:00:00 19.5 0 Calma 4 Nordeste 0 913.5 -0.4 80
2019-08-06 03:00:00 20.7 2 Noroeste 4 Nordeste 0 913.7 0 79
2019-08-06 02:00:00 22 0 Calma 6 Sudeste 0 913.8 0.4 75
2019-08-06 01:00:00 22.9 3 Sudeste 7 Sudeste 0 913.9 1.4 72
2019-08-06 00:00:00 23.5 2 Este 8 Este 0 913.7 2 66
2019-08-05 23:00:00 25 2 Sudeste 14 Este 0 913.4 2.2 60
2019-08-05 22:00:00 26.5 5 Sudeste 21 Sudeste 0 912.5 1.4 55
2019-08-05 21:00:00 29 9 Este 24 Sudeste 0 911.7 0.4 49
2019-08-05 20:00:00 35 10 Sur 28 Sudoeste 0 911.2 -0.8 19
2019-08-05 19:00:00 36.2 13 Sudoeste 35 Sudoeste 0 911.1 -1.2 9
2019-08-05 18:00:00 36.9 14 Sur 32 Sur 0 911.3 -1.5 10
2019-08-05 17:00:00 36.4 16 Sur 36 Sur 0 912 -1.2 23
2019-08-05 16:00:00 36.6 12 Sur 35 Sur 0 912.3 -1.2 19
2019-08-05 15:00:00 36.1 11 Sur 32 Sudoeste 0 912.8 -1.4 24
2019-08-05 14:00:00 35.4 14 Sur 29 Sur 0 913.2 -1.4 19
2019-08-05 13:00:00 34.8 14 Sur 35 Sur 0 913.5 -1.5 20
2019-08-05 12:00:00 31.3 5 Sudeste 11 Sudeste 0 914.2 -0.9 35
2019-08-05 11:00:00 27.3 3 Sudeste 5 Sur 0 914.6 -0.5 47
2019-08-05 10:00:00 23 3 Sur 6 Sudoeste 0 915 0.1 61
2019-08-05 09:00:00 19.6 2 Oeste 7 Norte 0 915.1 0.4 71
2019-08-05 08:00:00 16.2 3 Oeste 9 Este 0 915.1 0.1 82
2019-08-05 07:00:00 16.3 2 Oeste 4 Oeste 0 914.9 -0.3 82
2019-08-05 06:00:00 17.4 0 Calma 6 Norte 0 914.7 -0.7 79
2019-08-05 05:00:00 18.2 2 Este 5 Sur 0 915 -0.5 77
2019-08-05 04:00:00 19.6 4 Sur 6 Sur 0 915.2 -0.3 71
2019-08-05 03:00:00 19.9 3 Sudeste 5 Sur 0 915.4 0.2 72
2019-08-05 02:00:00 20.6 3 Oeste 7 Sudoeste 0 915.5 0.7 71
2019-08-05 01:00:00 22.4 3 Sudeste 10 Sudeste 0 915.5 1.9 64
2019-08-05 00:00:00 23.3 4 Sur 17 Sur 0 915.2 2.3 62
2019-08-04 23:00:00 24.4 4 Este 16 Sudeste 0 914.8 2.8 57
2019-08-04 22:00:00 26.1 9 Sur 23 Este 0 913.6 1.8 52
2019-08-04 21:00:00 29.4 7 Sudeste 27 Sudoeste 0 912.9 1.1 43
2019-08-04 20:00:00 34.4 12 Sudoeste 25 Sudoeste 0 912 -0.1 16
2019-08-04 19:00:00 35.3 11 Sudoeste 28 Sur 0 911.8 -0.7 15
2019-08-04 18:00:00 35.3 10 Sur 28 Sur 0 911.8 -1 20
2019-08-04 17:00:00 34 12 Sudoeste 27 Sudoeste 0 912.1 -0.8 22
2019-08-04 16:00:00 35.2 16 Sur 34 Sur 0 912.5 -1 19
2019-08-04 15:00:00 35.6 17 Sur 35 Sudeste 0 912.8 -1.2 19
2019-08-04 14:00:00 34.7 10 Oeste 21 Sudoeste 0 912.9 -1.6 19
2019-08-04 13:00:00 34.4 5 Sur 10 Sudoeste 0 913.5 -1.4 18
2019-08-04 12:00:00 31.8 4 Nordeste 8 Sur 0 914 -0.9 24
2019-08-04 11:00:00 28.2 3 Este 9 Este 0 914.5 0 44
2019-08-04 10:00:00 24.2 3 Este 6 Este 0 914.9 0.5 53
2019-08-04 09:00:00 19.8 2 Sudeste 6 Sudoeste 0 914.9 0.7 70
2019-08-04 08:00:00 16.5 2 Este 7 Este 0 914.5 0.4 80
2019-08-04 07:00:00 16.3 3 Oeste 5 Norte 0 914.4 0.1 80
2019-08-04 06:00:00 17 2 Noroeste 6 Norte 0 914.2 -0.2 76
2019-08-04 05:00:00 17.8 0 Calma 8 Nordeste 0 914.1 -0.4 72
2019-08-04 04:00:00 19.1 0 Calma 3 Oeste 0 914.3 -0.1 69
2019-08-04 03:00:00 20.4 2 Oeste 4 Sudeste 0 914.4 0.3 63
2019-08-04 02:00:00 21.6 2 Sur 11 Este 0 914.5 0.9 60
2019-08-04 01:00:00 22 4 Este 16 Sudeste 0 914.4 1.6 60
2019-08-04 00:00:00 22.7 5 Este 14 Nordeste 0 914.1 2.1 58
2019-08-03 23:00:00 24.2 4 Este 13 Sudeste 0 913.6 2.2 54
2019-08-03 22:00:00 26.1 4 Este 18 Sudeste 0 912.8 1.3 50
2019-08-03 21:00:00 29.1 8 Sudeste 30 Sudoeste 0 912 0.2 41
2019-08-03 20:00:00 33.2 16 Sur 32 Sur 0 911.4 -1 27
2019-08-03 19:00:00 34.6 15 Sur 28 Sur 0 911.5 -1.4 20
2019-08-03 18:00:00 35.4 16 Sur 31 Sur 0 911.8 -1.5 22
2019-08-03 17:00:00 36 12 Sur 30 Sur 0 912.4 -1.4 23
2019-08-03 16:00:00 35.7 13 Sur 35 Sur 0 912.9 -1.5 22
2019-08-03 15:00:00 35 14 Sur 32 Sur 0 913.3 -1.5 24
2019-08-03 14:00:00 33.7 10 Sur 25 Sudoeste 0 913.8 -1.2 24
2019-08-03 13:00:00 31.5 11 Sur 20 Sur 0 914.4 -0.8 31
2019-08-03 12:00:00 29.9 8 Sur 17 Sudeste 0 914.8 -0.6 34
2019-08-03 11:00:00 26.2 4 Sudeste 10 Sur 0 915 -0.5 45
2019-08-03 10:00:00 22.6 3 Este 6 Nordeste 0 915.2 0 54
2019-08-03 09:00:00 18.2 2 Sur 3 Sur 0 915.4 0.3 67
2019-08-03 08:00:00 14.4 2 Oeste 6 Oeste 0 915.5 0.3 80
2019-08-03 07:00:00 14.3 2 Noroeste 5 Oeste 0 915.2 -0.2 81
2019-08-03 06:00:00 15.2 0 Calma 5 Norte 0 915.1 -0.5 79
2019-08-03 05:00:00 16 2 Norte 4 Nordeste 0 915.2 -0.4 75
2019-08-03 04:00:00 16.8 0 Calma 4 Oeste 0 915.4 -0.4 74
2019-08-03 03:00:00 17.6 2 Oeste 4 Oeste 0 915.6 -0.1 71
2019-08-03 02:00:00 19.4 0 Calma 7 Sudeste 0 915.6 0.2 64
2019-08-03 01:00:00 20.3 2 Este 5 Nordeste 0 915.8 1.2 60
2019-08-03 00:00:00 21.6 2 Oeste 6 Norte 0 915.7 2 57
2019-08-02 23:00:00 23.4 4 Sudoeste 14 Sur 0 915.4 2.4 51
2019-08-02 22:00:00 24.4 7 Sudeste 29 Este 0 914.6 1.9 48
2019-08-02 21:00:00 25.8 10 Este 33 Sudeste 0 913.7 1 45
2019-08-02 20:00:00 29.8 8 Este 28 Sudeste 0 913 0.3 37
2019-08-02 19:00:00 31.5 8 Sudeste 27 Este 0 912.7 -0.4 34
2019-08-02 18:00:00 32 9 Este 30 Sudeste 0 912.7 -0.9 33
2019-08-02 17:00:00 34.8 8 Sudeste 20 Este 0 912.7 -1.5 28
2019-08-02 16:00:00 35 3 Oeste 13 Sur 0 913.1 -1.5 18
2019-08-02 15:00:00 33.7 5 Sur 17 Nordeste 0 913.6 -1.4 22
2019-08-02 14:00:00 32.4 5 Nordeste 12 Nordeste 0 914.2 -1 24
2019-08-02 13:00:00 30.2 4 Nordeste 9 Sudoeste 0 914.6 -0.8 33
2019-08-02 12:00:00 27 5 Sur 10 Sur 0 915 -0.3 50
2019-08-02 11:00:00 24.5 3 Este 8 Este 0 915.2 0.2 57
2019-08-02 10:00:00 22 3 Sudeste 9 Este 0 915.4 0.7 65
2019-08-02 09:00:00 19.1 4 Este 8 Nordeste 0 915.3 0.9 75
2019-08-02 08:00:00 15.4 3 Norte 5 Noroeste 0 915 0.6 87
2019-08-02 07:00:00 15.5 2 Norte 6 Sudoeste 0 914.7 0.4 86
2019-08-02 06:00:00 16.8 3 Oeste 8 Oeste 0 914.4 0.3 82
2019-08-02 05:00:00 17.9 3 Noroeste 7 Oeste 0 914.4 0.2 81
2019-08-02 04:00:00 18.3 3 Noroeste 5 Noroeste 0 914.3 0.3 75
2019-08-02 03:00:00 19.5 3 Oeste 6 Sudoeste 0 914.1 0.7 71
2019-08-02 02:00:00 20 0 Calma 10 Oeste 0 914.2 1.2 75
2019-08-02 01:00:00 21.4 4 Noroeste 13 Sudeste 0 914 2.2 73
2019-08-02 00:00:00 23 5 Sudeste 13 Sudeste 0 913.4 2.4 68
2019-08-01 23:00:00 24.8 5 Este 15 Este 0 913 2.5 58
2019-08-01 22:00:00 27.3 4 Este 18 Oeste 0 911.8 1.6 29
2019-08-01 21:00:00 30.6 10 Sudoeste 23 Oeste 0 911 0.7 23
2019-08-01 20:00:00 32.6 13 Oeste 26 Oeste 0 910.5 0.1 19
2019-08-01 19:00:00 33 8 Sudeste 24 Sur 0 910.2 -0.6 37
2019-08-01 18:00:00 35.2 15 Sur 33 Sudoeste 0 910.3 -1 24
2019-08-01 17:00:00 35.3 16 Sur 37 Sur 0 910.4 -1.5 21
2019-08-01 16:00:00 34.9 17 Sur 33 Sudoeste 0 910.8 -1.7 24
2019-08-01 15:00:00 32.8 15 Sur 30 Sur 0 911.3 -1.5 28
2019-08-01 14:00:00 32.1 10 Sur 24 Sur 0 911.9 -1.5 33
2019-08-01 13:00:00 29.2 10 Sur 22 Sudoeste 0 912.5 -0.9 37
2019-08-01 12:00:00 27.1 8 Sudoeste 22 Sur 0 912.8 -0.7 42
2019-08-01 11:00:00 24.5 8 Sur 18 Sudoeste 0 913.4 0 48
2019-08-01 10:00:00 21.4 8 Sur 17 Sudoeste 0 913.4 0.1 60
2019-08-01 09:00:00 18.4 9 Sur 19 Sur 0 913.5 0.3 77
2019-08-01 08:00:00 15.8 5 Sur 9 Sur 0 913.4 -0.1 91
2019-08-01 07:00:00 15.8 3 Sur 6 Sur 0 913.3 -0.6 89
2019-08-01 06:00:00 16.2 4 Sur 9 Sur 0 913.2 -0.5 89
2019-08-01 05:00:00 16.5 4 Sudoeste 14 Sur 0 913.5 -1 86
2019-08-01 04:00:00 16.9 3 Sudeste 11 Sur 0 913.9 -1.1 87
2019-08-01 03:00:00 17.4 2 Nordeste 9 Sudoeste 0 913.7 -1.3 85
2019-08-01 02:00:00 18.4 4 Sur 13 Sur 0 914.5 -0.3 82
2019-08-01 01:00:00 18.9 6 Sur 17 Sur 0 915 0.5 79
2019-08-01 00:00:00 19.4 3 Nordeste 10 Sudeste 0 915 0.8 78
2019-07-31 23:00:00 20.2 3 Sur 10 Sur 0 914.8 0.8 74
2019-07-31 22:00:00 20.7 4 Sudeste 19 Este 0 914.5 0.5 73
2019-07-31 21:00:00 21.8 7 Este 24 Este 0 914.2 0 69
2019-07-31 20:00:00 23.8 7 Sudeste 31 Sudeste 0 914 -0.3 62
2019-07-31 19:00:00 24.1 7 Este 31 Este 0 914 -0.5 62
2019-07-31 18:00:00 25.8 12 Este 30 Sudeste 0 914.2 -0.1 55
2019-07-31 17:00:00 26.2 11 Sudeste 27 Sudeste 0 914.3 -0.4 53
2019-07-31 16:00:00 28.1 9 Sudeste 27 Nordeste 0 914.5 -1.1 45
2019-07-31 15:00:00 29.5 9 Sudeste 32 Este 0 914.3 -1.5 38
2019-07-31 14:00:00 28.3 13 Este 37 Este 0 914.7 -1.5 42
2019-07-31 13:00:00 27.5 9 Sudeste 32 Sudeste 0 915.6 -0.5 44
2019-07-31 12:00:00 26 8 Este 27 Sur 0 915.8 -0.4 47
2019-07-31 11:00:00 22.6 6 Sur 18 Sur 0 916.2 -0.6 52
2019-07-31 10:00:00 19.3 8 Oeste 13 Oeste 0 916.1 -1.1 51
2019-07-31 09:00:00 16.7 3 Nordeste 8 Oeste 0 916.2 -0.7 57
2019-07-31 08:00:00 13.8 3 Oeste 7 Oeste 0 916.8 0.3 63
2019-07-31 07:00:00 13.3 5 Oeste 14 Oeste 0 917.2 1 64
2019-07-31 06:00:00 13.7 6 Oeste 10 Oeste 0 916.9 0.7 62
2019-07-31 05:00:00 14.5 5 Oeste 10 Oeste 0 916.5 0 60
2019-07-31 04:00:00 15.4 6 Oeste 14 Noroeste 0 916.2 -0.2 57
2019-07-31 03:00:00 16.6 8 Oeste 15 Sudoeste 0 916.2 0.2 54
2019-07-31 02:00:00 18 8 Sudoeste 18 Oeste 0 916.5 0.8 51
2019-07-31 01:00:00 20.2 8 Oeste 15 Sudoeste 0 916.4 1.6 46
2019-07-31 00:00:00 21.6 4 Norte 12 Este 0 916 2.2 52
2019-07-30 23:00:00 22.6 3 Este 9 Nordeste 0 915.7 2.6 65
2019-07-30 22:00:00 22.7 4 Sudeste 22 Sudeste 0 914.8 2.4 66
2019-07-30 21:00:00 23.4 8 Este 27 Este 0 913.8 1.2 64
2019-07-30 20:00:00 25.3 12 Este 32 Este 0 913.1 0.6 58
2019-07-30 19:00:00 29.3 6 Este 26 Norte 0 912.4 -0.3 44
2019-07-30 18:00:00 29.3 6 Este 26 Este 0 912.6 -1 42
2019-07-30 17:00:00 31.9 9 Oeste 23 Oeste 0 912.5 -1.9 24
2019-07-30 16:00:00 31.6 5 Este 18 Noroeste 0 912.7 -2.3 22
2019-07-30 15:00:00 30.1 6 Nordeste 11 Sudeste 0 913.6 -1.9 23
2019-07-30 14:00:00 28.3 5 Sur 17 Norte 0 914.4 -1.2 29
2019-07-30 13:00:00 25.7 5 Nordeste 18 Norte 0 915 -0.5 36
2019-07-30 12:00:00 24.2 6 Nordeste 24 Oeste 0 915.5 0.3 41
2019-07-30 11:00:00 21.6 9 Noroeste 26 Noroeste 0 915.6 0.8 47
2019-07-30 10:00:00 19.1 13 Noroeste 27 Noroeste 0 915.5 1.1 52
2019-07-30 09:00:00 17.1 4 Sudoeste 10 Norte 0 915.2 1.4 63
2019-07-30 08:00:00 13.9 3 Oeste 10 Oeste 0 914.8 1.5 79
2019-07-30 07:00:00 14.3 4 Oeste 7 Oeste 0 914.4 1.4 73
2019-07-30 06:00:00 15.1 2 Este 9 Noroeste 0 913.8 0.9 74
2019-07-30 05:00:00 16.8 4 Oeste 12 Oeste 0 913.3 0.7 69
2019-07-30 04:00:00 17.5 6 Oeste 12 Oeste 0 913 0.7 66
2019-07-30 03:00:00 18.8 8 Oeste 15 Oeste 0 912.9 1.1 56
2019-07-30 02:00:00 19.5 5 Oeste 13 Oeste 0 912.6 1.4 64
2019-07-30 01:00:00 20.8 5 Noroeste 10 Sudeste 0 912.3 2.1 61
2019-07-30 00:00:00 23.1 3 Sudeste 15 Este 0 911.8 2.2 55
2019-07-29 23:00:00 24.1 6 Este 15 Sudeste 0 911.2 2.1 53
2019-07-29 22:00:00 27.2 5 Sudoeste 21 Oeste 0 910.2 1.4 27
2019-07-29 21:00:00 29.4 11 Oeste 26 Oeste 0 909.6 0.5 23
2019-07-29 20:00:00 32.2 10 Sudoeste 26 Oeste 0 909.1 -0.2 21
2019-07-29 19:00:00 32.1 13 Sudoeste 26 Sudoeste 0 908.8 -0.8 22
2019-07-29 18:00:00 32.2 14 Sudoeste 30 Sur 0 909.1 -0.8 23
2019-07-29 17:00:00 34 13 Sudoeste 28 Oeste 0 909.3 -1 20
2019-07-29 16:00:00 32.7 4 Sur 31 Oeste 0 909.6 -1.1 22
2019-07-29 15:00:00 32.8 10 Sudoeste 24 Sudoeste 0 909.9 -1.1 21
2019-07-29 14:00:00 31.8 5 Sudoeste 38 Sudoeste 0 910.3 -1 23
2019-07-29 13:00:00 30.7 12 Sudoeste 32 Sur 0 910.7 -0.9 26
2019-07-29 12:00:00 28.8 10 Sur 23 Sudoeste 0 911 -0.9 31
2019-07-29 11:00:00 25.3 3 Sudeste 9 Este 0 911.3 -0.4 42
2019-07-29 10:00:00 21.2 3 Este 9 Este 0 911.6 0.2 57
2019-07-29 09:00:00 16.6 2 Sur 4 Sudoeste 0 911.9 0.8 68
2019-07-29 08:00:00 12 2 Oeste 5 Oeste 0 911.7 0.5 84
2019-07-29 07:00:00 11.6 2 Oeste 5 Oeste 0 911.4 0.2 83
2019-07-29 06:00:00 11.8 4 Oeste 7 Oeste 0 911.1 -0.1 83
2019-07-29 05:00:00 12.8 0 Calma 5 Oeste 0 911.2 -0.1 76
2019-07-29 04:00:00 13.3 4 Oeste 6 Oeste 0 911.2 0 74
2019-07-29 03:00:00 14.8 2 Noroeste 6 Oeste 0 911.2 0.3 70
2019-07-29 02:00:00 16.5 3 Nordeste 4 Nordeste 0 911.3 0.5 65
2019-07-29 01:00:00 18.3 2 Sudeste 11 Sur 0 911.2 1.1 58
2019-07-29 00:00:00 19.4 6 Sudeste 13 Sur 0 910.9 1.8 57
2019-07-28 23:00:00 20.6 4 Este 13 Este 0 910.8 2.4 48
2019-07-28 22:00:00 22.4 5 Este 23 Sudeste 0 910.1 2.1 44
2019-07-28 21:00:00 24.5 6 Este 23 Sudeste 0 909.1 0.8 40
2019-07-28 20:00:00 28.7 6 Este 20 Sudeste 0 908.4 -0.6 29
2019-07-28 19:00:00 29.2 7 Nordeste 19 Noroeste 0 908 -1.5 23
2019-07-28 18:00:00 29.5 4 Nordeste 15 Oeste 0 908.3 -1.6 23
2019-07-28 17:00:00 29.3 7 Sudoeste 17 Oeste 0 909 -1.5 24
2019-07-28 16:00:00 27.3 7 Noroeste 16 Noroeste 0 909.5 -1.6 27
2019-07-28 15:00:00 26.8 6 Este 18 Nordeste 0 909.9 -1.3 31
2019-07-28 14:00:00 24.4 5 Nordeste 18 Noroeste 0 910.5 -0.9 34
2019-07-28 13:00:00 22.6 9 Norte 23 Noroeste 0 911.1 -0.5 42
2019-07-28 12:00:00 20.3 11 Noroeste 26 Noroeste 0 911.2 -0.2 48
2019-07-28 11:00:00 18.4 9 Noroeste 20 Noroeste 0 911.4 0 53
2019-07-28 10:00:00 16.3 10 Noroeste 22 Noroeste 0 911.6 0.3 62
2019-07-28 09:00:00 14.7 6 Norte 18 Noroeste 0 911.4 0.6 65
2019-07-28 08:00:00 12 4 Noroeste 10 Noroeste 0 911.4 0.6 80
2019-07-28 07:00:00 11.5 5 Nordeste 12 Nordeste 0 911.3 0.7 82
2019-07-28 06:00:00 11.8 4 Norte 9 Nordeste 0 910.8 0.2 80
2019-07-28 05:00:00 13.3 4 Norte 9 Nordeste 0 910.8 0.2 75
2019-07-28 04:00:00 13 3 Nordeste 12 Nordeste 0 910.6 0.3 77
2019-07-28 03:00:00 14.7 5 Noroeste 16 Norte 0 910.6 0.7 71
2019-07-28 02:00:00 14.7 7 Noroeste 14 Noroeste 0 910.6 0.9 70
2019-07-28 01:00:00 15.3 6 Oeste 15 Norte 0 910.3 1.7 72
2019-07-28 00:00:00 16.3 7 Noroeste 17 Noroeste 0 909.9 2.4 66
2019-07-27 23:00:00 17.2 6 Norte 17 Norte 0 909.7 3.5 65
2019-07-26 12:00:00 27.3 3 Este 17 Sudoeste 0 911.5 -0.7 35
2019-07-26 11:00:00 22.2 8 Oeste 13 Sudoeste 0 911.7 -0.6 59
2019-07-26 10:00:00 20.9 2 Noroeste 15 Oeste 0 912.2 0.3 57
2019-07-26 09:00:00 19 2 Nordeste 5 Oeste 0 912.2 0.1 61
2019-07-26 08:00:00 17.6 2 Este 4 Sudoeste 0 912.3 -0.1 66
2019-07-26 07:00:00 16.8 0 Calma 7 Sur 0 911.9 -1 70
2019-07-26 06:00:00 17.5 3 Sudeste 5 Nordeste 0 912.1 -1.4 67
2019-07-26 05:00:00 18.3 0 Calma 5 Oeste 0 912.4 -1.5 63
2019-07-26 04:00:00 19.4 2 Oeste 6 Oeste 0 912.9 -1.3 59
2019-07-26 03:00:00 21.1 2 Sudoeste 7 Sudeste 0 913.5 -0.7 51
2019-07-26 02:00:00 21.7 4 Sur 9 Sur 0 913.9 -0.1 52
2019-07-26 01:00:00 22.9 4 Sudoeste 12 Sudeste 0 914.2 0.9 51
2019-07-26 00:00:00 24 5 Sur 18 Sudeste 0 914.2 1.5 48
2019-07-25 23:00:00 25 6 Sudeste 23 Sudeste 0 914 2 45
2019-07-25 22:00:00 26.2 9 Sudeste 30 Sudeste 0 913.3 1.3 42
2019-07-25 21:00:00 28.1 8 Sudeste 36 Este 0 912.7 0.9 39
2019-07-25 20:00:00 31.2 9 Sudeste 32 Este 0 912 -0.4 32
2019-07-25 19:00:00 34.3 16 Sur 32 Sur 0 912 -0.6 22
2019-07-25 18:00:00 36 13 Sur 34 Sur 0 911.8 -1.2 16
2019-07-25 17:00:00 36.1 14 Sur 31 Sur 0 912.4 -1.3 14
2019-07-25 16:00:00 36.2 15 Sur 30 Sur 0 912.6 -1.7 18
2019-07-25 15:00:00 36.5 11 Sur 29 Sur 0 913 -1.7 21
2019-07-25 14:00:00 34.9 13 Sur 31 Sur 0 913.7 -1.4 22
2019-07-25 13:00:00 33.3 14 Sur 30 Sudoeste 0 914.3 -1 25
2019-07-25 12:00:00 31.5 13 Sur 31 Sur 0 914.7 -0.8 25
2019-07-25 11:00:00 28.7 11 Sur 23 Sur 0 915.1 -0.4 28
2019-07-25 10:00:00 24.9 4 Sudeste 9 Sudeste 0 915.3 0 40
2019-07-25 09:00:00 19.2 0 Calma 5 Sudoeste 0 915.5 0.4 61
2019-07-25 08:00:00 14.9 3 Norte 5 Oeste 0 915.5 0.2 72
2019-07-25 07:00:00 14.8 0 Calma 5 Nordeste 0 915.3 -0.4 70
2019-07-25 06:00:00 15.4 2 Oeste 8 Sudoeste 0 915.1 -0.7 68
2019-07-25 05:00:00 16.6 2 Noroeste 5 Sudeste 0 915.3 -0.9 62
2019-07-25 04:00:00 18.6 2 Este 5 Sudeste 0 915.7 -0.6 57
2019-07-25 03:00:00 20.3 0 Calma 5 Sudeste 0 915.8 -0.4 50
2019-07-25 02:00:00 21.5 3 Sudeste 5 Sudeste 0 916.2 0.2 44
2019-07-25 01:00:00 22.7 3 Sudeste 8 Sudeste 0 916.3 0.9 42
2019-07-25 00:00:00 24.4 3 Sur 21 Sudeste 0 916.2 1.6 37
2019-07-24 23:00:00 25.3 6 Sudeste 21 Sudeste 0 916 1.7 35
2019-07-24 22:00:00 27.1 9 Sudeste 26 Sudeste 0 915.4 1.2 33
2019-07-24 21:00:00 29 7 Sudeste 27 Sur 0 914.6 0.1 31
2019-07-24 20:00:00 31.9 10 Sudeste 30 Este 0 914.3 -0.4 25
2019-07-24 19:00:00 34.7 10 Sudeste 34 Sur 0 914.2 -0.5 22
2019-07-24 18:00:00 35.8 12 Sur 31 Sur 0 914.5 -0.8 16
2019-07-24 17:00:00 36.5 11 Sur 31 Sur 0 914.7 -1.2 14
2019-07-24 16:00:00 36.6 10 Sudoeste 35 Sur 0 914.7 -1.5 14
2019-07-24 15:00:00 36.6 12 Sur 30 Sudoeste 0 915.3 -1.3 16
2019-07-24 14:00:00 35.1 11 Sudoeste 25 Sur 0 915.9 -1.1 20
2019-07-24 13:00:00 33.5 5 Sur 13 Sur 0 916.2 -0.9 23
2019-07-24 12:00:00 31.7 4 Sudeste 10 Sudeste 0 916.6 -0.9 26
2019-07-24 11:00:00 28.8 3 Este 8 Sudeste 0 917 -0.5 34
2019-07-24 10:00:00 26 4 Este 7 Nordeste 0 917.1 -0.1 40
2019-07-24 09:00:00 21.9 2 Sudoeste 6 Este 0 917.5 0.5 51
2019-07-24 08:00:00 19.3 2 Noroeste 6 Norte 0 917.5 0.4 57
2019-07-24 07:00:00 18.8 2 Oeste 9 Oeste 0 917.2 -0.3 59
2019-07-24 06:00:00 18.1 3 Noroeste 8 Nordeste 0 917 -0.7 59
2019-07-24 05:00:00 18 3 Noroeste 6 Oeste 0 917.1 -0.8 61
2019-07-24 04:00:00 18.3 4 Oeste 6 Oeste 0 917.5 -0.5 56
2019-07-24 03:00:00 18.9 3 Noroeste 6 Nordeste 0 917.7 -0.6 54
2019-07-24 02:00:00 19.5 0 Calma 6 Oeste 0 917.9 0.2 51
2019-07-24 01:00:00 21.1 2 Este 9 Oeste 0 918 0.8 47
2019-07-24 00:00:00 23.4 8 Oeste 10 Oeste 0 918.3 2 40
2019-07-23 23:00:00 25.3 4 Este 14 Sur 0 917.7 2 35
2019-07-23 22:00:00 27.2 7 Sur 26 Sudeste 0 917.2 1.3 31
2019-07-23 21:00:00 29.2 9 Sudeste 31 Sudeste 0 916.3 0 27
2019-07-23 20:00:00 31.9 12 Sudeste 30 Este 0 915.7 -0.5 23
2019-07-23 19:00:00 35 16 Sur 38 Sur 0 915.9 -0.4 17
2019-07-23 18:00:00 35.9 16 Sur 43 Sudeste 0 916.3 -0.3 17
2019-07-23 17:00:00 35.8 12 Sudeste 33 Este 0 916.2 -1 19
2019-07-23 16:00:00 36.3 12 Este 38 Este 0 916.3 -1.6 17
2019-07-23 15:00:00 36.2 12 Este 31 Este 0 916.6 -1.5 18
2019-07-23 14:00:00 35.9 8 Sur 22 Sur 0 917.2 -1.5 19
2019-07-23 13:00:00 34.3 6 Sur 14 Sur 0 917.9 -1.2 19
2019-07-23 12:00:00 32.2 4 Sudeste 10 Sur 0 918.1 -1.4 22
2019-07-23 11:00:00 28.4 4 Este 10 Sudeste 0 918.7 -0.5 34
2019-07-23 10:00:00 24 3 Este 5 Este 0 919.1 0 40
2019-07-23 09:00:00 18.6 0 Calma 5 Oeste 0 919.5 0.6 55
2019-07-23 08:00:00 13.8 0 Calma 4 Oeste 0 919.2 0 69
2019-07-23 07:00:00 13.5 0 Calma 4 Noroeste 0 919.1 -0.4 67
2019-07-23 06:00:00 14.1 0 Calma 4 Nordeste 0 918.9 -0.9 64
2019-07-23 05:00:00 15 2 Oeste 4 Oeste 0 919.2 -1.1 64
2019-07-23 04:00:00 16.3 0 Calma 4 Oeste 0 919.5 -1 58
2019-07-23 03:00:00 17.8 0 Calma 6 Este 0 919.8 -0.7 53
2019-07-23 02:00:00 20.3 5 Este 7 Sur 0 920.3 -0.2 42
2019-07-23 01:00:00 20.8 4 Este 7 Sur 0 920.5 0.4 41
2019-07-23 00:00:00 22.7 4 Sur 9 Sudoeste 0 920.5 1 35
2019-07-22 23:00:00 24.2 4 Sur 13 Sur 0 920.5 1.4 34
2019-07-22 22:00:00 25.7 8 Sur 23 Sudeste 0 920.1 0.9 33
2019-07-22 21:00:00 27.8 6 Sudeste 23 Sudeste 0 919.5 0.1 28
2019-07-22 20:00:00 30.7 7 Este 26 Sudeste 0 919.1 -0.1 26
2019-07-22 19:00:00 31.9 9 Sudeste 28 Este 0 919.2 -0.4 28
2019-07-22 18:00:00 33.4 11 Este 38 Este 0 919.4 -0.5 20
2019-07-22 17:00:00 35.1 10 Este 31 Este 0 919.2 -1.4 20
2019-07-22 16:00:00 35.2 9 Sudeste 34 Sudeste 0 919.6 -1.4 20
2019-07-22 15:00:00 34.7 12 Sudeste 32 Sudeste 0 919.9 -1.3 19
2019-07-22 14:00:00 34.1 9 Este 23 Sudeste 0 920.6 -0.7 17
2019-07-22 13:00:00 32.9 8 Sur 18 Sur 0 921 -0.4 22
2019-07-22 12:00:00 30.2 5 Sur 15 Sur 0 921.2 -0.3 20
2019-07-22 11:00:00 26.8 2 Sur 7 Oeste 0 921.3 -0.2 36
2019-07-22 10:00:00 22.3 4 Sudoeste 6 Sudoeste 0 921.4 0.2 45
2019-07-22 09:00:00 18.8 3 Sudoeste 5 Oeste 0 921.5 0.4 55
2019-07-22 08:00:00 15.6 2 Noroeste 9 Oeste 0 921.5 0.5 73
2019-07-22 07:00:00 14.8 4 Noroeste 6 Oeste 0 921.2 0 79
2019-07-22 06:00:00 15.8 4 Noroeste 6 Noroeste 0 921.1 -0.4 71
2019-07-22 05:00:00 16.2 0 Calma 4 Oeste 0 921 -0.9 74
2019-07-22 04:00:00 18 2 Este 6 Sudeste 0 921.2 -0.8 68
2019-07-22 03:00:00 19.4 4 Oeste 6 Oeste 0 921.5 -0.1 61
2019-07-22 02:00:00 21 4 Este 10 Sur 0 921.9 0.8 53
2019-07-22 01:00:00 22.3 4 Sudeste 14 Sudeste 0 922 2 48
2019-07-22 00:00:00 22.9 3 Este 14 Este 0 921.6 2.2 47
2019-07-21 23:00:00 24.3 5 Sudeste 23 Sur 0 921.1 2.1 44
2019-07-21 22:00:00 25.5 7 Sudeste 19 Este 0 920 1.4 42
2019-07-21 21:00:00 27.6 7 Sudeste 24 Este 0 919.4 1 35
2019-07-21 20:00:00 29.9 9 Este 27 Sudeste 0 919 0.7 28
2019-07-21 19:00:00 31.7 8 Sudeste 30 Este 0 918.6 0.1 26
2019-07-21 18:00:00 32.7 11 Este 30 Este 0 918.4 -0.3 27
2019-07-21 17:00:00 33.5 11 Este 34 Sudeste 0 918.3 -0.5 30
2019-07-21 16:00:00 34.2 12 Este 28 Nordeste 0 918.5 -0.8 26
2019-07-21 15:00:00 33.7 10 Sudeste 32 Este 0 918.7 -0.5 25
2019-07-21 14:00:00 33.1 12 Este 26 Este 0 918.8 -0.4 30
2019-07-21 13:00:00 32.3 8 Este 26 Este 0 919.3 -0.1 30
2019-07-21 12:00:00 31 6 Sudeste 14 Sur 0 919.2 -0.1 32
2019-07-21 11:00:00 28.2 6 Sur 14 Sur 0 919.2 0.2 35
2019-07-21 10:00:00 24.1 3 Este 5 Este 0 919.4 0.7 48
2019-07-21 09:00:00 19.3 2 Sudoeste 4 Sudoeste 0 919.3 0.9 67
2019-07-21 08:00:00 16.8 3 Nordeste 5 Nordeste 0 919 0.7 74
2019-07-21 07:00:00 16.4 0 Calma 4 Nordeste 0 918.7 0.4 74
2019-07-21 06:00:00 17.2 3 Nordeste 4 Este 0 918.4 -0.2 72
2019-07-21 05:00:00 18.3 2 Sudeste 5 Sudeste 0 918.3 -0.4 67
2019-07-21 04:00:00 19.8 4 Oeste 6 Sudeste 0 918.3 -0.3 62
2019-07-21 03:00:00 20.8 3 Sudeste 13 Sur 0 918.6 0.4 60
2019-07-21 02:00:00 21.4 6 Sur 15 Sur 0 918.7 1 62
2019-07-21 01:00:00 22.1 7 Sur 19 Sur 0 918.6 2.1 62
2019-07-21 00:00:00 22.8 8 Sudeste 21 Sur 0 918.2 2.7 60